PWSweather.com
Personal Weather Stations
Station Observations
KMOHERMA2
Stony Hill, Hermann, MO 65041

Stony HillHermann, MO 65041

Lat: 38.527, Lon: -91.414

Elevation: 896

Station Type: Davis Vantage Pro 2

High Low Average
Temperature 68.8°F20.4°C 62.9°F17.2°C 65.4°F18.6°C
Dew Point 67.3°F19.6°C 61.3°F16.3°C 63.8°F17.7°C
Winds Calm Calm Calm Calm Calm SECalm SE
Wind Gusts -- -- --
Humidity 95% 92% 94%
Pressure 29.90 in1012.5 mb 29.79 in1008.8 mb -
Precipitation 0.36 in9.1 mm - -
Hour Temp Dew Point Humidity Winds Wind Gusts Pressure Precip Precip Rate Daily Precip Total
12:00 AM 67.1°F19.5°C 64.0°F17.8°C 90% Calm Calm -- 29.81 in1009.5 mb 0.00 in0.0 mm 0.00 in0.0 mm 0.00 in0.0 mm
12:05 AM 67.1°F19.5°C 64.0°F17.8°C 90% Calm Calm -- 29.80 in1009.1 mb 0.00 in0.0 mm 0.00 in0.0 mm 0.00 in0.0 mm
12:10 AM 67.0°F19.4°C 63.9°F17.7°C 90% Calm Calm -- 29.80 in1009.1 mb 0.00 in0.0 mm 0.00 in0.0 mm 0.00 in0.0 mm
12:15 AM 66.9°F19.4°C 63.9°F17.7°C 90% Calm Calm -- 29.80 in1009.1 mb 0.00 in0.0 mm 0.00 in0.0 mm 0.00 in0.0 mm
12:20 AM 66.8°F19.3°C 63.7°F17.6°C 90% Calm Calm -- 29.80 in1009.1 mb 0.00 in0.0 mm 0.00 in0.0 mm 0.00 in0.0 mm
12:25 AM 66.7°F19.3°C 64.0°F17.8°C 91% Calm Calm -- 29.79 in1008.8 mb 0.00 in0.0 mm 0.00 in0.0 mm 0.00 in0.0 mm
12:30 AM 66.6°F19.2°C 63.9°F17.7°C 91% Calm Calm -- 29.79 in1008.8 mb 0.00 in0.0 mm 0.00 in0.0 mm 0.00 in0.0 mm
12:35 AM 66.5°F19.2°C 63.9°F17.7°C 91% Calm Calm -- 29.79 in1008.8 mb 0.00 in0.0 mm 0.00 in0.0 mm 0.00 in0.0 mm
12:40 AM 66.4°F19.1°C 63.7°F17.6°C 91% Calm Calm -- 29.79 in1008.8 mb 0.00 in0.0 mm 0.00 in0.0 mm 0.00 in0.0 mm
12:45 AM 66.3°F19.1°C 63.7°F17.6°C 91% Calm Calm -- 29.79 in1008.8 mb 0.00 in0.0 mm 0.00 in0.0 mm 0.00 in0.0 mm
12:50 AM 66.1°F18.9°C 63.3°F17.4°C 91% Calm Calm -- 29.79 in1008.8 mb 0.00 in0.0 mm 0.00 in0.0 mm 0.00 in0.0 mm
12:55 AM 66.0°F18.9°C 63.7°F17.6°C 92% Calm Calm -- 29.79 in1008.8 mb 0.00 in0.0 mm 0.00 in0.0 mm 0.00 in0.0 mm
01:00 AM 65.9°F18.8°C 63.5°F17.5°C 92% Calm Calm -- 29.79 in1008.8 mb 0.00 in0.0 mm 0.00 in0.0 mm 0.00 in0.0 mm
01:05 AM 65.8°F18.8°C 63.5°F17.5°C 92% Calm Calm -- 29.79 in1008.8 mb 0.00 in0.0 mm 0.00 in0.0 mm 0.00 in0.0 mm
01:10 AM 65.8°F18.8°C 63.5°F17.5°C 92% Calm Calm -- 29.80 in1009.1 mb 0.00 in0.0 mm 0.00 in0.0 mm 0.00 in0.0 mm
01:15 AM 65.7°F18.7°C 63.3°F17.4°C 92% Calm Calm -- 29.80 in1009.1 mb 0.00 in0.0 mm 0.00 in0.0 mm 0.00 in0.0 mm
01:20 AM 65.6°F18.7°C 63.3°F17.4°C 92% Calm Calm -- 29.80 in1009.1 mb 0.00 in0.0 mm 0.00 in0.0 mm 0.00 in0.0 mm
01:25 AM 65.5°F18.6°C 63.1°F17.3°C 92% Calm Calm -- 29.80 in1009.1 mb 0.00 in0.0 mm 0.00 in0.0 mm 0.00 in0.0 mm
01:30 AM 65.5°F18.6°C 63.1°F17.3°C 92% Calm Calm -- 29.80 in1009.1 mb 0.00 in0.0 mm 0.00 in0.0 mm 0.00 in0.0 mm
01:35 AM 65.4°F18.6°C 63.1°F17.3°C 92% Calm Calm -- 29.80 in1009.1 mb 0.00 in0.0 mm 0.00 in0.0 mm 0.00 in0.0 mm
01:40 AM 65.3°F18.5°C 63.0°F17.2°C 92% Calm Calm -- 29.80 in1009.1 mb 0.00 in0.0 mm 0.00 in0.0 mm 0.00 in0.0 mm
01:45 AM 65.3°F18.5°C 63.1°F17.3°C 93% Calm Calm -- 29.80 in1009.1 mb 0.00 in0.0 mm 0.00 in0.0 mm 0.00 in0.0 mm
01:50 AM 65.2°F18.4°C 63.0°F17.2°C 93% Calm Calm -- 29.80 in1009.1 mb 0.00 in0.0 mm 0.00 in0.0 mm 0.00 in0.0 mm
01:55 AM 65.2°F18.4°C 63.0°F17.2°C 93% Calm Calm -- 29.80 in1009.1 mb 0.00 in0.0 mm 0.00 in0.0 mm 0.00 in0.0 mm
02:00 AM 65.2°F18.4°C 63.0°F17.2°C 93% Calm Calm -- 29.80 in1009.1 mb 0.00 in0.0 mm 0.00 in0.0 mm 0.00 in0.0 mm
02:05 AM 65.2°F18.4°C 63.0°F17.2°C 93% Calm Calm -- 29.81 in1009.5 mb 0.00 in0.0 mm 0.00 in0.0 mm 0.00 in0.0 mm
02:10 AM 65.2°F18.4°C 63.0°F17.2°C 93% Calm Calm -- 29.81 in1009.5 mb 0.00 in0.0 mm 0.00 in0.0 mm 0.00 in0.0 mm
02:15 AM 65.2°F18.4°C 63.0°F17.2°C 93% Calm Calm -- 29.80 in1009.1 mb 0.00 in0.0 mm 0.00 in0.0 mm 0.00 in0.0 mm
02:20 AM 65.3°F18.5°C 63.1°F17.3°C 93% Calm Calm -- 29.80 in1009.1 mb 0.00 in0.0 mm 0.00 in0.0 mm 0.00 in0.0 mm
02:25 AM 65.3°F18.5°C 63.1°F17.3°C 93% Calm Calm -- 29.81 in1009.5 mb 0.00 in0.0 mm 0.00 in0.0 mm 0.00 in0.0 mm
02:30 AM 65.3°F18.5°C 63.1°F17.3°C 93% Calm Calm -- 29.81 in1009.5 mb 0.00 in0.0 mm 0.00 in0.0 mm 0.00 in0.0 mm
02:35 AM 65.3°F18.5°C 63.1°F17.3°C 93% Calm Calm -- 29.81 in1009.5 mb 0.00 in0.0 mm 0.00 in0.0 mm 0.00 in0.0 mm
02:40 AM 65.3°F18.5°C 63.1°F17.3°C 93% Calm Calm -- 29.81 in1009.5 mb 0.00 in0.0 mm 0.00 in0.0 mm 0.00 in0.0 mm
02:45 AM 65.4°F18.6°C 63.3°F17.4°C 93% Calm Calm -- 29.80 in1009.1 mb 0.00 in0.0 mm 0.00 in0.0 mm 0.00 in0.0 mm
02:50 AM 65.4°F18.6°C 63.3°F17.4°C 93% Calm Calm -- 29.80 in1009.1 mb 0.00 in0.0 mm 0.00 in0.0 mm 0.00 in0.0 mm
02:55 AM 65.4°F18.6°C 63.3°F17.4°C 93% Calm Calm -- 29.80 in1009.1 mb 0.00 in0.0 mm 0.00 in0.0 mm 0.00 in0.0 mm
03:00 AM 65.4°F18.6°C 63.3°F17.4°C 93% Calm Calm -- 29.80 in1009.1 mb 0.00 in0.0 mm 0.00 in0.0 mm 0.00 in0.0 mm
03:05 AM 65.5°F18.6°C 63.3°F17.4°C 93% Calm Calm -- 29.80 in1009.1 mb 0.00 in0.0 mm 0.00 in0.0 mm 0.00 in0.0 mm
03:10 AM 65.5°F18.6°C 63.3°F17.4°C 93% Calm Calm -- 29.80 in1009.1 mb 0.00 in0.0 mm 0.00 in0.0 mm 0.00 in0.0 mm
03:15 AM 65.4°F18.6°C 63.3°F17.4°C 93% Calm Calm -- 29.81 in1009.5 mb 0.00 in0.0 mm 0.00 in0.0 mm 0.00 in0.0 mm
03:20 AM 65.4°F18.6°C 63.3°F17.4°C 93% Calm Calm -- 29.81 in1009.5 mb 0.00 in0.0 mm 0.00 in0.0 mm 0.00 in0.0 mm
03:25 AM 65.4°F18.6°C 63.3°F17.4°C 93% Calm Calm -- 29.81 in1009.5 mb 0.00 in0.0 mm 0.00 in0.0 mm 0.00 in0.0 mm
03:30 AM 65.4°F18.6°C 63.3°F17.4°C 93% Calm Calm -- 29.81 in1009.5 mb 0.00 in0.0 mm 0.00 in0.0 mm 0.00 in0.0 mm
03:35 AM 65.3°F18.5°C 63.0°F17.2°C 92% Calm Calm -- 29.81 in1009.5 mb 0.00 in0.0 mm 0.00 in0.0 mm 0.00 in0.0 mm
03:40 AM 65.3°F18.5°C 63.0°F17.2°C 92% Calm Calm -- 29.80 in1009.1 mb 0.00 in0.0 mm 0.00 in0.0 mm 0.00 in0.0 mm
03:45 AM 65.2°F18.4°C 62.8°F17.1°C 92% Calm Calm -- 29.80 in1009.1 mb 0.00 in0.0 mm 0.00 in0.0 mm 0.00 in0.0 mm
03:50 AM 65.2°F18.4°C 62.8°F17.1°C 92% Calm Calm -- 29.80 in1009.1 mb 0.00 in0.0 mm 0.00 in0.0 mm 0.00 in0.0 mm
03:55 AM 65.1°F18.4°C 62.8°F17.1°C 92% Calm Calm -- 29.80 in1009.1 mb 0.00 in0.0 mm 0.00 in0.0 mm 0.00 in0.0 mm
04:00 AM 65.0°F18.3°C 62.6°F17.0°C 92% Calm Calm -- 29.80 in1009.1 mb 0.00 in0.0 mm 0.00 in0.0 mm 0.00 in0.0 mm
04:05 AM 65.0°F18.3°C 62.6°F17.0°C 92% Calm Calm -- 29.80 in1009.1 mb 0.00 in0.0 mm 0.00 in0.0 mm 0.00 in0.0 mm
04:10 AM 64.9°F18.3°C 62.6°F17.0°C 92% Calm Calm -- 29.80 in1009.1 mb 0.00 in0.0 mm 0.00 in0.0 mm 0.00 in0.0 mm
04:15 AM 64.9°F18.3°C 62.6°F17.0°C 92% Calm Calm -- 29.80 in1009.1 mb 0.00 in0.0 mm 0.00 in0.0 mm 0.00 in0.0 mm
04:20 AM 64.8°F18.2°C 62.6°F17.0°C 93% Calm Calm -- 29.79 in1008.8 mb 0.00 in0.0 mm 0.00 in0.0 mm 0.00 in0.0 mm
04:25 AM 64.8°F18.2°C 62.6°F17.0°C 93% Calm Calm -- 29.79 in1008.8 mb 0.00 in0.0 mm 0.00 in0.0 mm 0.00 in0.0 mm
04:30 AM 64.8°F18.2°C 62.6°F17.0°C 93% Calm Calm -- 29.80 in1009.1 mb 0.00 in0.0 mm 0.00 in0.0 mm 0.00 in0.0 mm
04:35 AM 64.7°F18.2°C 62.6°F17.0°C 93% Calm Calm -- 29.80 in1009.1 mb 0.00 in0.0 mm 0.00 in0.0 mm 0.00 in0.0 mm
04:40 AM 64.7°F18.2°C 62.6°F17.0°C 93% Calm Calm -- 29.79 in1008.8 mb 0.00 in0.0 mm 0.00 in0.0 mm 0.00 in0.0 mm
04:45 AM 64.6°F18.1°C 62.4°F16.9°C 93% Calm Calm -- 29.79 in1008.8 mb 0.00 in0.0 mm 0.00 in0.0 mm 0.00 in0.0 mm
04:50 AM 64.6°F18.1°C 62.4°F16.9°C 93% Calm Calm -- 29.80 in1009.1 mb 0.00 in0.0 mm 0.00 in0.0 mm 0.00 in0.0 mm
04:55 AM 64.6°F18.1°C 62.8°F17.1°C 94% Calm Calm -- 29.80 in1009.1 mb 0.00 in0.0 mm 0.00 in0.0 mm 0.00 in0.0 mm
05:00 AM 64.6°F18.1°C 62.8°F17.1°C 94% Calm Calm -- 29.80 in1009.1 mb 0.00 in0.0 mm 0.00 in0.0 mm 0.00 in0.0 mm
05:05 AM 64.6°F18.1°C 62.8°F17.1°C 94% Calm Calm -- 29.80 in1009.1 mb 0.00 in0.0 mm 0.00 in0.0 mm 0.00 in0.0 mm
05:10 AM 64.6°F18.1°C 62.8°F17.1°C 94% Calm Calm -- 29.80 in1009.1 mb 0.00 in0.0 mm 0.00 in0.0 mm 0.00 in0.0 mm
05:20 AM 64.6°F18.1°C 62.8°F17.1°C 94% Calm Calm -- 29.80 in1009.1 mb 0.00 in0.0 mm 0.00 in0.0 mm 0.00 in0.0 mm
05:25 AM 64.6°F18.1°C 62.8°F17.1°C 94% Calm Calm -- 29.80 in1009.1 mb 0.00 in0.0 mm 0.00 in0.0 mm 0.00 in0.0 mm
05:30 AM 64.5°F18.1°C 62.8°F17.1°C 94% Calm Calm -- 29.81 in1009.5 mb 0.00 in0.0 mm 0.00 in0.0 mm 0.00 in0.0 mm
05:35 AM 64.6°F18.1°C 62.8°F17.1°C 94% Calm Calm -- 29.80 in1009.1 mb 0.00 in0.0 mm 0.00 in0.0 mm 0.00 in0.0 mm
05:40 AM 64.6°F18.1°C 62.8°F17.1°C 94% Calm Calm -- 29.81 in1009.5 mb 0.00 in0.0 mm 0.00 in0.0 mm 0.00 in0.0 mm
05:45 AM 64.6°F18.1°C 62.8°F17.1°C 94% Calm Calm -- 29.81 in1009.5 mb 0.00 in0.0 mm 0.00 in0.0 mm 0.00 in0.0 mm
05:50 AM 64.6°F18.1°C 62.8°F17.1°C 94% Calm Calm -- 29.81 in1009.5 mb 0.00 in0.0 mm 0.00 in0.0 mm 0.00 in0.0 mm
05:55 AM 64.6°F18.1°C 62.8°F17.1°C 94% Calm Calm -- 29.81 in1009.5 mb 0.00 in0.0 mm 0.00 in0.0 mm 0.00 in0.0 mm
06:00 AM 64.6°F18.1°C 62.8°F17.1°C 94% Calm Calm -- 29.81 in1009.5 mb 0.00 in0.0 mm 0.00 in0.0 mm 0.00 in0.0 mm
06:05 AM 64.6°F18.1°C 62.8°F17.1°C 94% Calm Calm -- 29.81 in1009.5 mb 0.00 in0.0 mm 0.00 in0.0 mm 0.00 in0.0 mm
06:10 AM 64.6°F18.1°C 62.8°F17.1°C 94% Calm Calm -- 29.81 in1009.5 mb 0.00 in0.0 mm 0.00 in0.0 mm 0.00 in0.0 mm
06:15 AM 64.6°F18.1°C 62.8°F17.1°C 94% Calm Calm -- 29.82 in1009.8 mb 0.00 in0.0 mm 0.00 in0.0 mm 0.00 in0.0 mm
06:20 AM 64.6°F18.1°C 62.8°F17.1°C 94% Calm Calm -- 29.82 in1009.8 mb 0.00 in0.0 mm 0.00 in0.0 mm 0.00 in0.0 mm
06:25 AM 64.6°F18.1°C 62.8°F17.1°C 94% Calm Calm -- 29.81 in1009.5 mb 0.00 in0.0 mm 0.00 in0.0 mm 0.00 in0.0 mm
06:30 AM 64.6°F18.1°C 62.8°F17.1°C 94% Calm Calm -- 29.82 in1009.8 mb 0.00 in0.0 mm 0.00 in0.0 mm 0.00 in0.0 mm
06:35 AM 64.6°F18.1°C 62.8°F17.1°C 94% Calm Calm -- 29.81 in1009.5 mb 0.00 in0.0 mm 0.00 in0.0 mm 0.00 in0.0 mm
06:40 AM 64.6°F18.1°C 62.8°F17.1°C 94% Calm Calm -- 29.82 in1009.8 mb 0.00 in0.0 mm 0.00 in0.0 mm 0.00 in0.0 mm
06:45 AM 64.7°F18.2°C 63.3°F17.4°C 95% Calm Calm -- 29.82 in1009.8 mb 0.00 in0.0 mm 0.00 in0.0 mm 0.00 in0.0 mm
06:50 AM 64.7°F18.2°C 63.3°F17.4°C 95% Calm Calm -- 29.82 in1009.8 mb 0.00 in0.0 mm 0.00 in0.0 mm 0.00 in0.0 mm
06:55 AM 64.7°F18.2°C 63.3°F17.4°C 95% Calm Calm -- 29.82 in1009.8 mb 0.00 in0.0 mm 0.00 in0.0 mm 0.00 in0.0 mm
07:00 AM 64.8°F18.2°C 63.3°F17.4°C 95% Calm Calm -- 29.82 in1009.8 mb 0.00 in0.0 mm 0.00 in0.0 mm 0.00 in0.0 mm
07:05 AM 64.9°F18.3°C 63.5°F17.5°C 95% Calm Calm -- 29.82 in1009.8 mb 0.00 in0.0 mm 0.00 in0.0 mm 0.00 in0.0 mm
07:10 AM 65.0°F18.3°C 63.1°F17.3°C 94% Calm Calm -- 29.82 in1009.8 mb 0.00 in0.0 mm 0.00 in0.0 mm 0.00 in0.0 mm
07:15 AM 65.1°F18.4°C 63.3°F17.4°C 94% Calm Calm -- 29.83 in1010.2 mb 0.00 in0.0 mm 0.00 in0.0 mm 0.00 in0.0 mm
07:20 AM 65.1°F18.4°C 63.3°F17.4°C 94% Calm Calm -- 29.83 in1010.2 mb 0.00 in0.0 mm 0.00 in0.0 mm 0.00 in0.0 mm
07:25 AM 65.2°F18.4°C 63.3°F17.4°C 94% Calm Calm -- 29.82 in1009.8 mb 0.00 in0.0 mm 0.00 in0.0 mm 0.00 in0.0 mm
07:30 AM 65.3°F18.5°C 63.9°F17.7°C 95% Calm Calm -- 29.83 in1010.2 mb 0.00 in0.0 mm 0.00 in0.0 mm 0.00 in0.0 mm
07:35 AM 65.5°F18.6°C 64.0°F17.8°C 95% Calm Calm -- 29.83 in1010.2 mb 0.00 in0.0 mm 0.00 in0.0 mm 0.00 in0.0 mm
07:40 AM 65.6°F18.7°C 64.2°F17.9°C 95% Calm Calm -- 29.83 in1010.2 mb 0.00 in0.0 mm 0.00 in0.0 mm 0.00 in0.0 mm
07:45 AM 65.7°F18.7°C 64.2°F17.9°C 95% Calm Calm -- 29.83 in1010.2 mb 0.00 in0.0 mm 0.00 in0.0 mm 0.00 in0.0 mm
07:50 AM 65.8°F18.8°C 64.4°F18.0°C 95% Calm Calm -- 29.83 in1010.2 mb 0.00 in0.0 mm 0.00 in0.0 mm 0.00 in0.0 mm
07:55 AM 65.9°F18.8°C 64.0°F17.8°C 94% Calm Calm -- 29.83 in1010.2 mb 0.00 in0.0 mm 0.00 in0.0 mm 0.00 in0.0 mm
08:00 AM 66.1°F18.9°C 64.6°F18.1°C 95% Calm Calm -- 29.83 in1010.2 mb 0.00 in0.0 mm 0.00 in0.0 mm 0.00 in0.0 mm
08:05 AM 66.2°F19.0°C 64.8°F18.2°C 95% Calm Calm -- 29.83 in1010.2 mb 0.00 in0.0 mm 0.00 in0.0 mm 0.00 in0.0 mm
08:10 AM 66.3°F19.1°C 64.9°F18.3°C 95% Calm Calm -- 29.83 in1010.2 mb 0.00 in0.0 mm 0.00 in0.0 mm 0.00 in0.0 mm
08:15 AM 66.4°F19.1°C 64.9°F18.3°C 95% Calm Calm -- 29.83 in1010.2 mb 0.00 in0.0 mm 0.00 in0.0 mm 0.00 in0.0 mm
08:20 AM 66.5°F19.2°C 65.1°F18.4°C 95% Calm Calm -- 29.84 in1010.5 mb 0.00 in0.0 mm 0.00 in0.0 mm 0.00 in0.0 mm
08:25 AM 66.7°F19.3°C 65.3°F18.5°C 95% Calm Calm -- 29.84 in1010.5 mb 0.00 in0.0 mm 0.00 in0.0 mm 0.00 in0.0 mm
08:30 AM 66.9°F19.4°C 65.5°F18.6°C 95% Calm Calm -- 29.84 in1010.5 mb 0.00 in0.0 mm 0.00 in0.0 mm 0.00 in0.0 mm
08:35 AM 67.0°F19.4°C 65.5°F18.6°C 95% Calm Calm -- 29.84 in1010.5 mb 0.00 in0.0 mm 0.00 in0.0 mm 0.00 in0.0 mm
08:40 AM 67.2°F19.6°C 65.8°F18.8°C 95% Calm Calm -- 29.84 in1010.5 mb 0.00 in0.0 mm 0.00 in0.0 mm 0.00 in0.0 mm
08:45 AM 67.3°F19.6°C 65.8°F18.8°C 95% Calm Calm -- 29.84 in1010.5 mb 0.00 in0.0 mm 0.00 in0.0 mm 0.00 in0.0 mm
08:50 AM 67.3°F19.6°C 65.8°F18.8°C 95% Calm Calm -- 29.84 in1010.5 mb 0.00 in0.0 mm 0.00 in0.0 mm 0.00 in0.0 mm
08:55 AM 67.4°F19.7°C 66.0°F18.9°C 95% Calm Calm -- 29.85 in1010.8 mb 0.00 in0.0 mm 0.00 in0.0 mm 0.00 in0.0 mm
09:00 AM 67.5°F19.7°C 66.0°F18.9°C 95% Calm Calm -- 29.85 in1010.8 mb 0.00 in0.0 mm 0.00 in0.0 mm 0.00 in0.0 mm
09:05 AM 67.6°F19.8°C 66.2°F19.0°C 95% Calm Calm -- 29.85 in1010.8 mb 0.00 in0.0 mm 0.00 in0.0 mm 0.00 in0.0 mm
09:10 AM 67.6°F19.8°C 66.2°F19.0°C 95% Calm Calm -- 29.85 in1010.8 mb 0.00 in0.0 mm 0.00 in0.0 mm 0.00 in0.0 mm
09:15 AM 67.5°F19.7°C 66.0°F18.9°C 95% Calm Calm -- 29.85 in1010.8 mb 0.00 in0.0 mm 0.00 in0.0 mm 0.00 in0.0 mm
09:20 AM 67.4°F19.7°C 66.0°F18.9°C 95% Calm Calm -- 29.86 in1011.2 mb 0.00 in0.0 mm 0.00 in0.0 mm 0.00 in0.0 mm
09:25 AM 67.5°F19.7°C 66.0°F18.9°C 95% Calm Calm -- 29.86 in1011.2 mb 0.00 in0.0 mm 0.00 in0.0 mm 0.00 in0.0 mm
09:30 AM 67.6°F19.8°C 66.2°F19.0°C 95% Calm Calm -- 29.86 in1011.2 mb 0.00 in0.0 mm 0.00 in0.0 mm 0.00 in0.0 mm
09:35 AM 67.6°F19.8°C 66.2°F19.0°C 95% Calm Calm -- 29.86 in1011.2 mb 0.00 in0.0 mm 0.00 in0.0 mm 0.00 in0.0 mm
09:40 AM 67.6°F19.8°C 66.2°F19.0°C 95% Calm Calm -- 29.86 in1011.2 mb 0.00 in0.0 mm 0.00 in0.0 mm 0.00 in0.0 mm
09:45 AM 67.7°F19.8°C 66.2°F19.0°C 95% Calm Calm -- 29.86 in1011.2 mb 0.00 in0.0 mm 0.00 in0.0 mm 0.00 in0.0 mm
09:50 AM 67.7°F19.8°C 66.2°F19.0°C 95% Calm Calm -- 29.86 in1011.2 mb 0.00 in0.0 mm 0.00 in0.0 mm 0.00 in0.0 mm
09:55 AM 67.8°F19.9°C 66.0°F18.9°C 94% Calm Calm -- 29.87 in1011.5 mb 0.00 in0.0 mm 0.00 in0.0 mm 0.00 in0.0 mm
10:00 AM 67.9°F19.9°C 66.0°F18.9°C 94% Calm Calm -- 29.87 in1011.5 mb 0.00 in0.0 mm 0.00 in0.0 mm 0.00 in0.0 mm
10:05 AM 67.9°F19.9°C 66.0°F18.9°C 94% Calm Calm -- 29.87 in1011.5 mb 0.00 in0.0 mm 0.00 in0.0 mm 0.00 in0.0 mm
10:10 AM 68.0°F20.0°C 66.6°F19.2°C 95% Calm Calm -- 29.87 in1011.5 mb 0.00 in0.0 mm 0.00 in0.0 mm 0.00 in0.0 mm
10:15 AM 68.1°F20.1°C 66.7°F19.3°C 95% Calm Calm -- 29.87 in1011.5 mb 0.00 in0.0 mm 0.00 in0.0 mm 0.00 in0.0 mm
10:20 AM 68.1°F20.1°C 66.7°F19.3°C 95% Calm Calm -- 29.87 in1011.5 mb 0.00 in0.0 mm 0.00 in0.0 mm 0.00 in0.0 mm
10:25 AM 68.2°F20.1°C 66.7°F19.3°C 95% Calm Calm -- 29.87 in1011.5 mb 0.00 in0.0 mm 0.00 in0.0 mm 0.00 in0.0 mm
10:30 AM 68.3°F20.2°C 66.9°F19.4°C 95% Calm Calm -- 29.88 in1011.9 mb 0.00 in0.0 mm 0.00 in0.0 mm 0.00 in0.0 mm
10:35 AM 68.3°F20.2°C 66.6°F19.2°C 94% Calm Calm -- 29.88 in1011.9 mb 0.00 in0.0 mm 0.00 in0.0 mm 0.00 in0.0 mm
10:40 AM 68.3°F20.2°C 66.6°F19.2°C 94% Calm Calm -- 29.88 in1011.9 mb 0.00 in0.0 mm 0.00 in0.0 mm 0.00 in0.0 mm
10:45 AM 68.3°F20.2°C 66.6°F19.2°C 94% Calm Calm -- 29.87 in1011.5 mb 0.00 in0.0 mm 0.00 in0.0 mm 0.00 in0.0 mm
10:50 AM 68.4°F20.2°C 66.6°F19.2°C 94% Calm Calm -- 29.88 in1011.9 mb 0.00 in0.0 mm 0.00 in0.0 mm 0.00 in0.0 mm
10:55 AM 68.5°F20.3°C 66.7°F19.3°C 94% Calm Calm -- 29.88 in1011.9 mb 0.00 in0.0 mm 0.00 in0.0 mm 0.00 in0.0 mm
11:00 AM 68.6°F20.3°C 66.7°F19.3°C 94% Calm Calm -- 29.88 in1011.9 mb 0.00 in0.0 mm 0.00 in0.0 mm 0.00 in0.0 mm
11:05 AM 68.7°F20.4°C 66.9°F19.4°C 94% Calm Calm -- 29.88 in1011.9 mb 0.00 in0.0 mm 0.00 in0.0 mm 0.00 in0.0 mm
11:10 AM 68.6°F20.3°C 66.7°F19.3°C 94% Calm Calm -- 29.87 in1011.5 mb 0.00 in0.0 mm 0.00 in0.0 mm 0.00 in0.0 mm
11:15 AM 68.7°F20.4°C 67.3°F19.6°C 95% Calm Calm -- 29.87 in1011.5 mb 0.00 in0.0 mm 0.00 in0.0 mm 0.00 in0.0 mm
11:20 AM 68.8°F20.4°C 67.3°F19.6°C 95% Calm Calm -- 29.87 in1011.5 mb 0.00 in0.0 mm 0.00 in0.0 mm 0.00 in0.0 mm
11:25 AM 68.7°F20.4°C 67.3°F19.6°C 95% Calm Calm -- 29.87 in1011.5 mb 0.00 in0.0 mm 0.00 in0.0 mm 0.00 in0.0 mm
11:30 AM 68.7°F20.4°C 67.3°F19.6°C 95% Calm Calm -- 29.87 in1011.5 mb 0.00 in0.0 mm 0.00 in0.0 mm 0.00 in0.0 mm
11:35 AM 68.7°F20.4°C 67.3°F19.6°C 95% Calm Calm -- 29.87 in1011.5 mb 0.00 in0.0 mm 0.00 in0.0 mm 0.00 in0.0 mm
11:40 AM 68.6°F20.3°C 66.7°F19.3°C 94% Calm Calm -- 29.88 in1011.9 mb 0.00 in0.0 mm 0.00 in0.0 mm 0.00 in0.0 mm
11:45 AM 68.4°F20.2°C 66.6°F19.2°C 94% Calm Calm -- 29.88 in1011.9 mb 0.00 in0.0 mm 0.00 in0.0 mm 0.00 in0.0 mm
11:50 AM 68.3°F20.2°C 66.6°F19.2°C 94% Calm Calm -- 29.88 in1011.9 mb 0.00 in0.0 mm 0.00 in0.0 mm 0.00 in0.0 mm
11:55 AM 68.3°F20.2°C 66.6°F19.2°C 94% Calm Calm -- 29.88 in1011.9 mb 0.00 in0.0 mm 0.00 in0.0 mm 0.00 in0.0 mm
12:00 PM 68.5°F20.3°C 66.7°F19.3°C 94% Calm Calm -- 29.88 in1011.9 mb 0.00 in0.0 mm 0.00 in0.0 mm 0.00 in0.0 mm
12:05 PM 68.3°F20.2°C 66.6°F19.2°C 94% Calm Calm -- 29.88 in1011.9 mb 0.00 in0.0 mm 0.00 in0.0 mm 0.00 in0.0 mm
12:10 PM 68.3°F20.2°C 66.6°F19.2°C 94% Calm Calm -- 29.88 in1011.9 mb 0.00 in0.0 mm 0.00 in0.0 mm 0.00 in0.0 mm
12:15 PM 68.3°F20.2°C 66.6°F19.2°C 94% Calm Calm -- 29.88 in1011.9 mb 0.00 in0.0 mm 0.00 in0.0 mm 0.00 in0.0 mm
12:20 PM 68.3°F20.2°C 66.6°F19.2°C 94% Calm Calm -- 29.88 in1011.9 mb 0.00 in0.0 mm 0.00 in0.0 mm 0.00 in0.0 mm
12:25 PM 68.4°F20.2°C 66.9°F19.4°C 95% Calm Calm -- 29.88 in1011.9 mb 0.00 in0.0 mm 0.00 in0.0 mm 0.00 in0.0 mm
12:30 PM 68.5°F20.3°C 66.7°F19.3°C 94% Calm Calm -- 29.89 in1012.2 mb 0.00 in0.0 mm 0.00 in0.0 mm 0.00 in0.0 mm
12:35 PM 68.5°F20.3°C 66.7°F19.3°C 94% Calm Calm -- 29.89 in1012.2 mb 0.00 in0.0 mm 0.00 in0.0 mm 0.00 in0.0 mm
12:40 PM 68.4°F20.2°C 66.6°F19.2°C 94% Calm Calm -- 29.89 in1012.2 mb 0.00 in0.0 mm 0.00 in0.0 mm 0.00 in0.0 mm
12:45 PM 68.3°F20.2°C 66.6°F19.2°C 94% Calm Calm -- 29.89 in1012.2 mb 0.00 in0.0 mm 0.00 in0.0 mm 0.00 in0.0 mm
12:50 PM 68.3°F20.2°C 66.6°F19.2°C 94% Calm Calm -- 29.89 in1012.2 mb 0.00 in0.0 mm 0.00 in0.0 mm 0.00 in0.0 mm
12:55 PM 68.4°F20.2°C 66.6°F19.2°C 94% Calm Calm -- 29.89 in1012.2 mb 0.00 in0.0 mm 0.00 in0.0 mm 0.00 in0.0 mm
01:00 PM 68.5°F20.3°C 66.7°F19.3°C 94% Calm Calm -- 29.89 in1012.2 mb 0.00 in0.0 mm 0.00 in0.0 mm 0.00 in0.0 mm
01:05 PM 68.3°F20.2°C 66.6°F19.2°C 94% Calm Calm -- 29.89 in1012.2 mb 0.00 in0.0 mm 0.00 in0.0 mm 0.00 in0.0 mm
01:10 PM 68.3°F20.2°C 66.6°F19.2°C 94% Calm Calm -- 29.88 in1011.9 mb 0.00 in0.0 mm 0.00 in0.0 mm 0.00 in0.0 mm
01:15 PM 68.3°F20.2°C 66.6°F19.2°C 94% Calm Calm -- 29.89 in1012.2 mb 0.00 in0.0 mm 0.00 in0.0 mm 0.00 in0.0 mm
01:20 PM 68.3°F20.2°C 66.6°F19.2°C 94% Calm Calm -- 29.89 in1012.2 mb 0.00 in0.0 mm 0.00 in0.0 mm 0.00 in0.0 mm
01:25 PM 68.3°F20.2°C 66.6°F19.2°C 94% Calm Calm -- 29.88 in1011.9 mb 0.00 in0.0 mm 0.00 in0.0 mm 0.00 in0.0 mm
01:30 PM 68.3°F20.2°C 66.6°F19.2°C 94% Calm Calm -- 29.88 in1011.9 mb 0.00 in0.0 mm 0.00 in0.0 mm 0.00 in0.0 mm
01:35 PM 68.3°F20.2°C 66.6°F19.2°C 94% Calm Calm -- 29.88 in1011.9 mb 0.00 in0.0 mm 0.00 in0.0 mm 0.00 in0.0 mm
01:40 PM 68.3°F20.2°C 66.6°F19.2°C 94% Calm Calm -- 29.88 in1011.9 mb 0.00 in0.0 mm 0.00 in0.0 mm 0.00 in0.0 mm
01:45 PM 68.3°F20.2°C 66.9°F19.4°C 95% Calm Calm -- 29.88 in1011.9 mb 0.00 in0.0 mm 0.00 in0.0 mm 0.00 in0.0 mm
01:50 PM 68.4°F20.2°C 66.9°F19.4°C 95% Calm Calm -- 29.88 in1011.9 mb 0.00 in0.0 mm 0.00 in0.0 mm 0.00 in0.0 mm
01:55 PM 68.2°F20.1°C 66.7°F19.3°C 95% Calm Calm -- 29.88 in1011.9 mb 0.00 in0.0 mm 0.00 in0.0 mm 0.00 in0.0 mm
02:00 PM 68.2°F20.1°C 66.7°F19.3°C 95% Calm Calm -- 29.88 in1011.9 mb 0.00 in0.0 mm 0.00 in0.0 mm 0.00 in0.0 mm
02:05 PM 68.2°F20.1°C 66.7°F19.3°C 95% Calm Calm -- 29.88 in1011.9 mb 0.00 in0.0 mm 0.00 in0.0 mm 0.00 in0.0 mm
02:10 PM 68.2°F20.1°C 66.7°F19.3°C 95% Calm Calm -- 29.87 in1011.5 mb 0.00 in0.0 mm 0.00 in0.0 mm 0.00 in0.0 mm
02:15 PM 68.3°F20.2°C 66.9°F19.4°C 95% Calm Calm -- 29.87 in1011.5 mb 0.00 in0.0 mm 0.00 in0.0 mm 0.00 in0.0 mm
02:20 PM 68.2°F20.1°C 66.7°F19.3°C 95% Calm Calm -- 29.87 in1011.5 mb 0.00 in0.0 mm 0.00 in0.0 mm 0.00 in0.0 mm
02:25 PM 68.1°F20.1°C 66.7°F19.3°C 95% Calm Calm -- 29.87 in1011.5 mb 0.00 in0.0 mm 0.00 in0.0 mm 0.00 in0.0 mm
02:30 PM 68.0°F20.0°C 66.6°F19.2°C 95% Calm Calm -- 29.87 in1011.5 mb 0.00 in0.0 mm 0.00 in0.0 mm 0.00 in0.0 mm
02:35 PM 67.9°F19.9°C 66.4°F19.1°C 95% Calm Calm -- 29.87 in1011.5 mb 0.00 in0.0 mm 0.00 in0.0 mm 0.00 in0.0 mm
02:40 PM 67.7°F19.8°C 66.2°F19.0°C 95% Calm Calm -- 29.87 in1011.5 mb 0.00 in0.0 mm 0.00 in0.0 mm 0.00 in0.0 mm
02:45 PM 67.6°F19.8°C 66.2°F19.0°C 95% Calm Calm -- 29.88 in1011.9 mb 0.00 in0.0 mm 0.00 in0.0 mm 0.00 in0.0 mm
02:50 PM 67.5°F19.7°C 66.0°F18.9°C 95% Calm Calm -- 29.88 in1011.9 mb 0.00 in0.0 mm 0.00 in0.0 mm 0.00 in0.0 mm
02:55 PM 67.4°F19.7°C 66.0°F18.9°C 95% Calm Calm -- 29.88 in1011.9 mb 0.00 in0.0 mm 0.00 in0.0 mm 0.00 in0.0 mm
03:00 PM 67.4°F19.7°C 66.0°F18.9°C 95% Calm Calm -- 29.88 in1011.9 mb 0.00 in0.0 mm 0.00 in0.0 mm 0.00 in0.0 mm
03:05 PM 67.3°F19.6°C 65.8°F18.8°C 95% Calm Calm -- 29.88 in1011.9 mb 0.00 in0.0 mm 0.00 in0.0 mm 0.00 in0.0 mm
03:10 PM 67.3°F19.6°C 65.8°F18.8°C 95% Calm Calm -- 29.88 in1011.9 mb 0.00 in0.0 mm 0.00 in0.0 mm 0.00 in0.0 mm
03:15 PM 67.4°F19.7°C 66.0°F18.9°C 95% Calm Calm -- 29.87 in1011.5 mb 0.00 in0.0 mm 0.00 in0.0 mm 0.00 in0.0 mm
03:20 PM 67.3°F19.6°C 65.8°F18.8°C 95% Calm Calm -- 29.88 in1011.9 mb 0.00 in0.0 mm 0.00 in0.0 mm 0.00 in0.0 mm
03:25 PM 67.3°F19.6°C 65.8°F18.8°C 95% Calm Calm -- 29.88 in1011.9 mb 0.00 in0.0 mm 0.00 in0.0 mm 0.00 in0.0 mm
03:30 PM 67.3°F19.6°C 65.8°F18.8°C 95% Calm Calm -- 29.88 in1011.9 mb 0.00 in0.0 mm 0.00 in0.0 mm 0.00 in0.0 mm
03:35 PM 67.1°F19.5°C 65.7°F18.7°C 95% Calm Calm -- 29.88 in1011.9 mb 0.00 in0.0 mm 0.00 in0.0 mm 0.00 in0.0 mm
03:40 PM 67.0°F19.4°C 65.5°F18.6°C 95% Calm Calm -- 29.88 in1011.9 mb 0.00 in0.0 mm 0.00 in0.0 mm 0.00 in0.0 mm
03:45 PM 66.9°F19.4°C 65.5°F18.6°C 95% Calm Calm -- 29.88 in1011.9 mb 0.00 in0.0 mm 0.00 in0.0 mm 0.00 in0.0 mm
03:50 PM 66.9°F19.4°C 65.5°F18.6°C 95% Calm Calm -- 29.88 in1011.9 mb 0.00 in0.0 mm 0.00 in0.0 mm 0.00 in0.0 mm
03:55 PM 66.9°F19.4°C 65.5°F18.6°C 95% Calm Calm -- 29.89 in1012.2 mb 0.00 in0.0 mm 0.00 in0.0 mm 0.00 in0.0 mm
04:00 PM 66.8°F19.3°C 65.3°F18.5°C 95% Calm Calm -- 29.89 in1012.2 mb 0.00 in0.0 mm 0.00 in0.0 mm 0.00 in0.0 mm
04:05 PM 66.8°F19.3°C 65.3°F18.5°C 95% Calm Calm -- 29.89 in1012.2 mb 0.00 in0.0 mm 0.00 in0.0 mm 0.00 in0.0 mm
04:10 PM 66.7°F19.3°C 65.3°F18.5°C 95% Calm Calm -- 29.89 in1012.2 mb 0.00 in0.0 mm 0.00 in0.0 mm 0.00 in0.0 mm
04:15 PM 66.7°F19.3°C 65.3°F18.5°C 95% Calm Calm -- 29.89 in1012.2 mb 0.00 in0.0 mm 0.00 in0.0 mm 0.00 in0.0 mm
04:20 PM 66.6°F19.2°C 65.1°F18.4°C 95% Calm Calm -- 29.89 in1012.2 mb 0.01 in0.3 mm 0.12 in3.0 mm 0.01 in0.3 mm
04:25 PM 66.3°F19.1°C 64.9°F18.3°C 95% Calm Calm -- 29.90 in1012.5 mb 0.02 in0.5 mm 0.12 in3.0 mm 0.02 in0.5 mm
04:30 PM 65.8°F18.8°C 64.4°F18.0°C 95% Calm Calm -- 29.90 in1012.5 mb 0.03 in0.8 mm 0.12 in3.0 mm 0.03 in0.8 mm
04:35 PM 65.2°F18.4°C 63.3°F17.4°C 94% Calm Calm -- 29.90 in1012.5 mb 0.08 in2.0 mm 0.60 in15.2 mm 0.08 in2.0 mm
04:40 PM 64.8°F18.2°C 63.3°F17.4°C 95% Calm Calm -- 29.89 in1012.2 mb 0.11 in2.8 mm 0.36 in9.1 mm 0.11 in2.8 mm
04:45 PM 64.3°F17.9°C 62.4°F16.9°C 94% Calm Calm -- 29.89 in1012.2 mb 0.15 in3.8 mm 0.48 in12.2 mm 0.15 in3.8 mm
04:50 PM 63.5°F17.5°C 62.1°F16.7°C 95% Calm Calm -- 29.88 in1011.9 mb 0.19 in4.8 mm 0.48 in12.2 mm 0.19 in4.8 mm
04:55 PM 63.1°F17.3°C 61.3°F16.3°C 94% Calm Calm -- 29.89 in1012.2 mb 0.21 in5.3 mm 0.24 in6.1 mm 0.21 in5.3 mm
05:00 PM 63.0°F17.2°C 61.5°F16.4°C 95% Calm Calm -- 29.88 in1011.9 mb 0.22 in5.6 mm 0.01 in0.3 mm 0.22 in5.6 mm
05:05 PM 62.9°F17.2°C 61.5°F16.4°C 95% Calm Calm -- 29.89 in1012.2 mb 0.22 in5.6 mm 0.00 in0.0 mm 0.22 in5.6 mm
05:10 PM 62.9°F17.2°C 61.5°F16.4°C 95% Calm Calm -- 29.89 in1012.2 mb 0.22 in5.6 mm 0.00 in0.0 mm 0.22 in5.6 mm
05:15 PM 62.9°F17.2°C 61.5°F16.4°C 95% Calm Calm -- 29.88 in1011.9 mb 0.23 in5.8 mm 0.12 in3.0 mm 0.23 in5.8 mm
05:20 PM 62.9°F17.2°C 61.5°F16.4°C 95% Calm Calm -- 29.88 in1011.9 mb 0.22 in5.6 mm 0.00 in0.0 mm 0.23 in5.8 mm
05:25 PM 62.9°F17.2°C 61.5°F16.4°C 95% Calm Calm -- 29.88 in1011.9 mb 0.22 in5.6 mm 0.00 in0.0 mm 0.24 in6.1 mm
05:30 PM 63.0°F17.2°C 61.5°F16.4°C 95% Calm Calm -- 29.88 in1011.9 mb 0.22 in5.6 mm 0.00 in0.0 mm 0.25 in6.4 mm
05:35 PM 63.1°F17.3°C 61.7°F16.5°C 95% Calm Calm -- 29.88 in1011.9 mb 0.18 in4.6 mm 0.00 in0.0 mm 0.26 in6.6 mm
05:40 PM 63.1°F17.3°C 61.7°F16.5°C 95% Calm Calm -- 29.88 in1011.9 mb 0.17 in4.3 mm 0.00 in0.0 mm 0.28 in7.1 mm
05:45 PM 63.1°F17.3°C 61.7°F16.5°C 95% Calm Calm -- 29.88 in1011.9 mb 0.14 in3.6 mm 0.00 in0.0 mm 0.29 in7.4 mm
05:50 PM 63.1°F17.3°C 61.7°F16.5°C 95% Calm Calm -- 29.88 in1011.9 mb 0.11 in2.8 mm 0.00 in0.0 mm 0.30 in7.6 mm
05:55 PM 63.2°F17.3°C 61.7°F16.5°C 95% Calm Calm -- 29.88 in1011.9 mb 0.10 in2.5 mm 0.00 in0.0 mm 0.31 in7.9 mm
06:00 PM 63.2°F17.3°C 61.7°F16.5°C 95% Calm Calm -- 29.88 in1011.9 mb 0.10 in2.5 mm 0.00 in0.0 mm 0.32 in8.1 mm
06:05 PM 63.2°F17.3°C 61.7°F16.5°C 95% Calm Calm -- 29.88 in1011.9 mb 0.10 in2.5 mm 0.00 in0.0 mm 0.32 in8.1 mm
06:10 PM 63.2°F17.3°C 61.7°F16.5°C 95% Calm Calm -- 29.88 in1011.9 mb 0.11 in2.8 mm 0.12 in3.0 mm 0.33 in8.4 mm
06:15 PM 63.2°F17.3°C 61.7°F16.5°C 95% Calm Calm -- 29.88 in1011.9 mb 0.10 in2.5 mm 0.00 in0.0 mm 0.33 in8.4 mm
06:20 PM 63.3°F17.4°C 61.9°F16.6°C 95% Calm Calm -- 29.88 in1011.9 mb 0.11 in2.8 mm 0.12 in3.0 mm 0.34 in8.6 mm
06:25 PM 63.3°F17.4°C 61.9°F16.6°C 95% Calm Calm -- 29.88 in1011.9 mb 0.10 in2.5 mm 0.00 in0.0 mm 0.34 in8.6 mm
06:30 PM 63.3°F17.4°C 61.9°F16.6°C 95% Calm Calm -- 29.88 in1011.9 mb 0.09 in2.3 mm 0.00 in0.0 mm 0.34 in8.6 mm
06:35 PM 63.3°F17.4°C 61.9°F16.6°C 95% Calm Calm -- 29.88 in1011.9 mb 0.08 in2.0 mm 0.00 in0.0 mm 0.34 in8.6 mm
06:40 PM 63.4°F17.4°C 61.9°F16.6°C 95% Calm Calm -- 29.88 in1011.9 mb 0.07 in1.8 mm 0.00 in0.0 mm 0.35 in8.9 mm
06:45 PM 63.4°F17.4°C 61.9°F16.6°C 95% Calm Calm -- 29.88 in1011.9 mb 0.06 in1.5 mm 0.00 in0.0 mm 0.35 in8.9 mm
06:50 PM 63.4°F17.4°C 61.9°F16.6°C 95% Calm Calm -- 29.87 in1011.5 mb 0.05 in1.3 mm 0.00 in0.0 mm 0.35 in8.9 mm
06:55 PM 63.3°F17.4°C 61.9°F16.6°C 95% Calm Calm -- 29.87 in1011.5 mb 0.04 in1.0 mm 0.00 in0.0 mm 0.35 in8.9 mm
07:00 PM 63.3°F17.4°C 61.9°F16.6°C 95% Calm Calm -- 29.87 in1011.5 mb 0.03 in0.8 mm 0.00 in0.0 mm 0.35 in8.9 mm
07:05 PM 63.3°F17.4°C 61.9°F16.6°C 95% Calm Calm -- 29.87 in1011.5 mb 0.03 in0.8 mm 0.00 in0.0 mm 0.35 in8.9 mm
07:10 PM 63.3°F17.4°C 61.9°F16.6°C 95% Calm Calm -- 29.87 in1011.5 mb 0.02 in0.5 mm 0.00 in0.0 mm 0.35 in8.9 mm
07:15 PM 63.3°F17.4°C 61.9°F16.6°C 95% Calm Calm -- 29.87 in1011.5 mb 0.02 in0.5 mm 0.00 in0.0 mm 0.35 in8.9 mm
07:20 PM 63.4°F17.4°C 61.9°F16.6°C 95% Calm Calm -- 29.87 in1011.5 mb 0.01 in0.3 mm 0.00 in0.0 mm 0.35 in8.9 mm
07:25 PM 63.4°F17.4°C 61.9°F16.6°C 95% Calm Calm -- 29.87 in1011.5 mb 0.01 in0.3 mm 0.00 in0.0 mm 0.35 in8.9 mm
07:30 PM 63.4°F17.4°C 61.9°F16.6°C 95% Calm Calm -- 29.87 in1011.5 mb 0.02 in0.5 mm 0.12 in3.0 mm 0.36 in9.1 mm
07:35 PM 63.5°F17.5°C 62.1°F16.7°C 95% Calm Calm -- 29.87 in1011.5 mb 0.02 in0.5 mm 0.00 in0.0 mm 0.36 in9.1 mm
07:40 PM 63.5°F17.5°C 62.1°F16.7°C 95% Calm Calm -- 29.87 in1011.5 mb 0.01 in0.3 mm 0.00 in0.0 mm 0.36 in9.1 mm
07:45 PM 63.6°F17.6°C 62.2°F16.8°C 95% Calm Calm -- 29.87 in1011.5 mb 0.01 in0.3 mm 0.00 in0.0 mm 0.36 in9.1 mm
07:50 PM 63.6°F17.6°C 62.2°F16.8°C 95% Calm Calm -- 29.87 in1011.5 mb 0.01 in0.3 mm 0.00 in0.0 mm 0.36 in9.1 mm
07:55 PM 63.6°F17.6°C 62.2°F16.8°C 95% Calm Calm -- 29.87 in1011.5 mb 0.01 in0.3 mm 0.00 in0.0 mm 0.36 in9.1 mm
08:00 PM 63.6°F17.6°C 62.2°F16.8°C 95% Calm Calm -- 29.86 in1011.2 mb 0.01 in0.3 mm 0.00 in0.0 mm 0.36 in9.1 mm
08:05 PM 63.5°F17.5°C 62.1°F16.7°C 95% Calm Calm -- 29.86 in1011.2 mb 0.01 in0.3 mm 0.00 in0.0 mm 0.36 in9.1 mm
08:10 PM 63.4°F17.4°C 61.9°F16.6°C 95% Calm Calm -- 29.87 in1011.5 mb 0.01 in0.3 mm 0.00 in0.0 mm 0.36 in9.1 mm
08:15 PM 63.3°F17.4°C 61.9°F16.6°C 95% Calm Calm -- 29.87 in1011.5 mb 0.01 in0.3 mm 0.00 in0.0 mm 0.36 in9.1 mm
08:20 PM 63.3°F17.4°C 61.9°F16.6°C 95% Calm Calm -- 29.86 in1011.2 mb 0.01 in0.3 mm 0.00 in0.0 mm 0.36 in9.1 mm
08:25 PM 63.2°F17.3°C 61.7°F16.5°C 95% Calm Calm -- 29.86 in1011.2 mb 0.01 in0.3 mm 0.00 in0.0 mm 0.36 in9.1 mm
08:30 PM 63.1°F17.3°C 61.7°F16.5°C 95% Calm Calm -- 29.86 in1011.2 mb 0.00 in0.0 mm 0.00 in0.0 mm 0.36 in9.1 mm
08:35 PM 63.1°F17.3°C 61.7°F16.5°C 95% Calm Calm -- 29.86 in1011.2 mb 0.00 in0.0 mm 0.00 in0.0 mm 0.36 in9.1 mm
08:40 PM 63.0°F17.2°C 61.5°F16.4°C 95% Calm Calm -- 29.86 in1011.2 mb 0.00 in0.0 mm 0.00 in0.0 mm 0.36 in9.1 mm
08:45 PM 63.0°F17.2°C 61.5°F16.4°C 95% Calm Calm -- 29.86 in1011.2 mb 0.00 in0.0 mm 0.00 in0.0 mm 0.36 in9.1 mm
08:50 PM 63.0°F17.2°C 61.5°F16.4°C 95% Calm Calm -- 29.86 in1011.2 mb 0.00 in0.0 mm 0.00 in0.0 mm 0.36 in9.1 mm
08:55 PM 63.0°F17.2°C 61.5°F16.4°C 95% Calm Calm -- 29.86 in1011.2 mb 0.00 in0.0 mm 0.00 in0.0 mm 0.36 in9.1 mm
09:00 PM 63.0°F17.2°C 61.5°F16.4°C 95% Calm Calm -- 29.87 in1011.5 mb 0.00 in0.0 mm 0.00 in0.0 mm 0.36 in9.1 mm
09:05 PM 63.0°F17.2°C 61.5°F16.4°C 95% Calm Calm -- 29.87 in1011.5 mb 0.00 in0.0 mm 0.00 in0.0 mm 0.36 in9.1 mm
09:10 PM 63.0°F17.2°C 61.5°F16.4°C 95% Calm Calm -- 29.87 in1011.5 mb 0.00 in0.0 mm 0.00 in0.0 mm 0.36 in9.1 mm
09:15 PM 62.9°F17.2°C 61.5°F16.4°C 95% Calm Calm -- 29.88 in1011.9 mb 0.00 in0.0 mm 0.00 in0.0 mm 0.36 in9.1 mm
09:20 PM 63.0°F17.2°C 61.5°F16.4°C 95% Calm Calm -- 29.87 in1011.5 mb 0.00 in0.0 mm 0.00 in0.0 mm 0.36 in9.1 mm
09:25 PM 63.0°F17.2°C 61.5°F16.4°C 95% Calm Calm -- 29.87 in1011.5 mb 0.00 in0.0 mm 0.00 in0.0 mm 0.36 in9.1 mm
09:30 PM 63.0°F17.2°C 61.5°F16.4°C 95% Calm Calm -- 29.88 in1011.9 mb 0.00 in0.0 mm 0.00 in0.0 mm 0.36 in9.1 mm
09:35 PM 63.0°F17.2°C 61.5°F16.4°C 95% Calm Calm -- 29.88 in1011.9 mb 0.00 in0.0 mm 0.00 in0.0 mm 0.36 in9.1 mm
09:40 PM 63.0°F17.2°C 61.5°F16.4°C 95% Calm Calm -- 29.88 in1011.9 mb 0.00 in0.0 mm 0.00 in0.0 mm 0.36 in9.1 mm
09:45 PM 63.0°F17.2°C 61.5°F16.4°C 95% Calm Calm -- 29.88 in1011.9 mb 0.00 in0.0 mm 0.00 in0.0 mm 0.36 in9.1 mm
09:50 PM 62.9°F17.2°C 61.5°F16.4°C 95% Calm Calm -- 29.88 in1011.9 mb 0.00 in0.0 mm 0.00 in0.0 mm 0.36 in9.1 mm
09:55 PM 62.9°F17.2°C 61.5°F16.4°C 95% Calm Calm -- 29.88 in1011.9 mb 0.00 in0.0 mm 0.00 in0.0 mm 0.36 in9.1 mm
10:00 PM 62.9°F17.2°C 61.5°F16.4°C 95% Calm Calm -- 29.88 in1011.9 mb 0.00 in0.0 mm 0.00 in0.0 mm 0.36 in9.1 mm
10:05 PM 62.9°F17.2°C 61.5°F16.4°C 95% Calm Calm -- 29.89 in1012.2 mb 0.00 in0.0 mm 0.00 in0.0 mm 0.36 in9.1 mm
10:10 PM 62.9°F17.2°C 61.5°F16.4°C 95% Calm Calm -- 29.89 in1012.2 mb 0.00 in0.0 mm 0.00 in0.0 mm 0.36 in9.1 mm
10:15 PM 62.9°F17.2°C 61.5°F16.4°C 95% Calm Calm -- 29.89 in1012.2 mb 0.00 in0.0 mm 0.00 in0.0 mm 0.36 in9.1 mm
10:20 PM 63.0°F17.2°C 61.5°F16.4°C 95% Calm Calm -- 29.89 in1012.2 mb 0.00 in0.0 mm 0.00 in0.0 mm 0.36 in9.1 mm
10:25 PM 63.0°F17.2°C 61.5°F16.4°C 95% Calm Calm -- 29.89 in1012.2 mb 0.00 in0.0 mm 0.00 in0.0 mm 0.36 in9.1 mm
10:30 PM 63.1°F17.3°C 61.7°F16.5°C 95% Calm Calm -- 29.89 in1012.2 mb 0.00 in0.0 mm 0.00 in0.0 mm 0.36 in9.1 mm
10:35 PM 63.3°F17.4°C 61.9°F16.6°C 95% Calm Calm -- 29.90 in1012.5 mb 0.00 in0.0 mm 0.00 in0.0 mm 0.36 in9.1 mm
10:40 PM 63.3°F17.4°C 61.9°F16.6°C 95% Calm Calm -- 29.90 in1012.5 mb 0.00 in0.0 mm 0.00 in0.0 mm 0.36 in9.1 mm
10:45 PM 63.4°F17.4°C 61.9°F16.6°C 95% Calm Calm -- 29.90 in1012.5 mb 0.00 in0.0 mm 0.00 in0.0 mm 0.36 in9.1 mm
10:50 PM 63.3°F17.4°C 61.9°F16.6°C 95% Calm Calm -- 29.90 in1012.5 mb 0.00 in0.0 mm 0.00 in0.0 mm 0.36 in9.1 mm
10:55 PM 63.3°F17.4°C 61.9°F16.6°C 95% Calm Calm -- 29.89 in1012.2 mb 0.00 in0.0 mm 0.00 in0.0 mm 0.36 in9.1 mm
11:00 PM 63.3°F17.4°C 61.9°F16.6°C 95% Calm Calm -- 29.89 in1012.2 mb 0.00 in0.0 mm 0.00 in0.0 mm 0.36 in9.1 mm
11:05 PM 63.3°F17.4°C 61.9°F16.6°C 95% Calm Calm -- 29.90 in1012.5 mb 0.00 in0.0 mm 0.00 in0.0 mm 0.36 in9.1 mm
11:10 PM 63.3°F17.4°C 61.9°F16.6°C 95% Calm Calm -- 29.90 in1012.5 mb 0.00 in0.0 mm 0.00 in0.0 mm 0.36 in9.1 mm
11:15 PM 63.3°F17.4°C 61.9°F16.6°C 95% Calm Calm -- 29.89 in1012.2 mb 0.00 in0.0 mm 0.00 in0.0 mm 0.36 in9.1 mm
11:20 PM 63.3°F17.4°C 61.9°F16.6°C 95% Calm Calm -- 29.89 in1012.2 mb 0.00 in0.0 mm 0.00 in0.0 mm 0.36 in9.1 mm
11:25 PM 63.3°F17.4°C 61.9°F16.6°C 95% Calm Calm -- 29.89 in1012.2 mb 0.00 in0.0 mm 0.00 in0.0 mm 0.36 in9.1 mm
11:30 PM 63.3°F17.4°C 61.9°F16.6°C 95% Calm Calm -- 29.89 in1012.2 mb 0.00 in0.0 mm 0.00 in0.0 mm 0.36 in9.1 mm
11:35 PM 63.3°F17.4°C 61.9°F16.6°C 95% Calm Calm -- 29.88 in1011.9 mb 0.00 in0.0 mm 0.00 in0.0 mm 0.36 in9.1 mm
11:40 PM 63.4°F17.4°C 61.9°F16.6°C 95% Calm Calm -- 29.88 in1011.9 mb 0.00 in0.0 mm 0.00 in0.0 mm 0.36 in9.1 mm
11:45 PM 63.4°F17.4°C 61.9°F16.6°C 95% Calm Calm -- 29.88 in1011.9 mb 0.00 in0.0 mm 0.00 in0.0 mm 0.36 in9.1 mm
11:50 PM 63.4°F17.4°C 61.9°F16.6°C 95% Calm Calm -- 29.88 in1011.9 mb 0.00 in0.0 mm 0.00 in0.0 mm 0.36 in9.1 mm
11:55 PM 63.5°F17.5°C 62.1°F16.7°C 95% Calm Calm -- 29.89 in1012.2 mb 0.00 in0.0 mm 0.00 in0.0 mm 0.36 in9.1 mm